createdAt,value
2023-05-10T00:00:22.836Z,10.65
2023-05-10T00:01:22.827Z,10.65
2023-05-10T00:02:22.888Z,10.66
2023-05-10T00:03:22.825Z,10.66
2023-05-10T00:04:22.801Z,10.67
2023-05-10T00:05:22.782Z,10.67
2023-05-10T00:06:22.751Z,10.67
2023-05-10T00:07:22.743Z,10.67
2023-05-10T00:08:22.744Z,10.67
2023-05-10T00:09:22.714Z,10.67
2023-05-10T00:10:22.722Z,10.66
2023-05-10T00:11:23.276Z,10.67
2023-05-10T00:12:22.679Z,10.67
2023-05-10T00:13:22.709Z,10.66
2023-05-10T00:14:22.673Z,10.66
2023-05-10T00:15:22.727Z,10.65
2023-05-10T00:16:22.808Z,10.65
2023-05-10T00:17:22.615Z,10.64
2023-05-10T00:18:22.618Z,10.63
2023-05-10T00:19:22.589Z,10.62
2023-05-10T00:20:22.561Z,10.60
2023-05-10T00:21:22.567Z,10.59
2023-05-10T00:22:22.541Z,10.57
2023-05-10T00:23:22.543Z,10.56
2023-05-10T00:24:22.510Z,10.54
2023-05-10T00:25:22.508Z,10.53
2023-05-10T00:26:22.478Z,10.52
2023-05-10T00:27:22.500Z,10.49
2023-05-10T00:28:22.464Z,10.46
2023-05-10T00:29:22.458Z,10.44
2023-05-10T00:30:22.440Z,10.41
2023-05-10T00:31:22.476Z,10.37
2023-05-10T00:32:22.474Z,10.35
2023-05-10T00:33:22.422Z,10.35
2023-05-10T00:34:22.416Z,10.34
2023-05-10T00:35:22.384Z,10.34
2023-05-10T00:36:22.365Z,10.34
2023-05-10T00:37:22.345Z,10.34
2023-05-10T00:38:22.355Z,10.34
2023-05-10T00:39:22.338Z,10.34
2023-05-10T00:40:22.306Z,10.34
2023-05-10T00:41:22.286Z,10.34
2023-05-10T00:42:22.277Z,10.33
2023-05-10T00:43:22.284Z,10.33
2023-05-10T00:44:22.265Z,10.32
2023-05-10T00:45:22.234Z,10.32
2023-05-10T00:46:22.267Z,10.31
2023-05-10T00:47:22.229Z,10.30
2023-05-10T00:48:22.190Z,10.29
2023-05-10T00:49:22.258Z,10.29
2023-05-10T00:50:22.175Z,10.29
2023-05-10T00:51:22.156Z,10.29
2023-05-10T00:52:22.148Z,10.28
2023-05-10T00:53:22.132Z,10.27
2023-05-10T00:54:22.116Z,10.27
2023-05-10T00:55:22.131Z,10.27
2023-05-10T00:56:22.101Z,10.27
2023-05-10T00:57:22.107Z,10.26
2023-05-10T00:58:22.072Z,10.26
2023-05-10T00:59:22.076Z,10.26
2023-05-10T01:00:22.070Z,10.26
2023-05-10T01:01:22.122Z,10.25
2023-05-10T01:02:22.068Z,10.24
2023-05-10T01:03:22.100Z,10.24
2023-05-10T01:04:21.991Z,10.24
2023-05-10T01:05:22.189Z,10.23
2023-05-10T01:06:21.964Z,10.23
2023-05-10T01:07:21.958Z,10.22
2023-05-10T01:08:21.934Z,10.22
2023-05-10T01:09:21.958Z,10.21
2023-05-10T01:10:21.916Z,10.21
2023-05-10T01:11:21.939Z,10.20
2023-05-10T01:12:21.985Z,10.20
2023-05-10T01:13:22.080Z,10.19
2023-05-10T01:14:21.867Z,10.19
2023-05-10T01:15:21.853Z,10.19
2023-05-10T01:16:21.866Z,10.19
2023-05-10T01:17:21.881Z,10.20
2023-05-10T01:18:21.809Z,10.20
2023-05-10T01:19:21.818Z,10.20
2023-05-10T01:20:21.782Z,10.20
2023-05-10T01:21:21.767Z,10.20
2023-05-10T01:22:21.767Z,10.20
2023-05-10T01:23:21.764Z,10.20
2023-05-10T01:24:21.724Z,10.20
2023-05-10T01:25:21.714Z,10.20
2023-05-10T01:26:21.727Z,10.20
2023-05-10T01:27:21.690Z,10.20
2023-05-10T01:28:21.694Z,10.19
2023-05-10T01:29:21.660Z,10.19
2023-05-10T01:30:22.311Z,10.19
2023-05-10T01:31:21.657Z,10.19
2023-05-10T01:32:21.619Z,10.19
2023-05-10T01:33:21.620Z,10.18
2023-05-10T01:34:21.618Z,10.17
2023-05-10T01:35:21.593Z,10.16
2023-05-10T01:36:21.583Z,10.15
2023-05-10T01:37:21.621Z,10.15
2023-05-10T01:38:21.546Z,10.15
2023-05-10T01:39:21.552Z,10.16
2023-05-10T01:40:21.538Z,10.16
2023-05-10T01:41:21.533Z,10.16
2023-05-10T01:42:21.488Z,10.16
2023-05-10T01:43:21.466Z,10.16
2023-05-10T01:44:21.471Z,10.15
2023-05-10T01:45:21.447Z,10.15
2023-05-10T01:46:22.324Z,10.14
2023-05-10T01:47:21.426Z,10.14
2023-05-10T01:48:21.413Z,10.13
2023-05-10T01:49:21.391Z,10.13
2023-05-10T01:50:21.415Z,10.13
2023-05-10T01:51:21.373Z,10.13
2023-05-10T01:52:21.376Z,10.14
2023-05-10T01:53:21.380Z,10.15
2023-05-10T01:54:21.335Z,10.15
2023-05-10T01:55:21.328Z,10.15
2023-05-10T01:56:21.300Z,10.14
2023-05-10T01:57:21.289Z,10.13
2023-05-10T01:58:21.296Z,10.12
2023-05-10T01:59:21.261Z,10.11
2023-05-10T02:00:21.260Z,10.11
2023-05-10T02:01:21.293Z,10.09
2023-05-10T02:02:21.229Z,10.09
2023-05-10T02:03:21.251Z,10.08
2023-05-10T02:04:21.233Z,10.09
2023-05-10T02:05:21.200Z,10.10
2023-05-10T02:06:21.172Z,10.11
2023-05-10T02:07:21.180Z,10.12
2023-05-10T02:08:21.189Z,10.13
2023-05-10T02:09:21.122Z,10.13
2023-05-10T02:10:21.172Z,10.13
2023-05-10T02:11:21.107Z,10.12
2023-05-10T02:12:21.115Z,10.11
2023-05-10T02:13:21.146Z,10.10
2023-05-10T02:14:21.065Z,10.10
2023-05-10T02:15:21.111Z,10.09
2023-05-10T02:16:21.068Z,10.08
2023-05-10T02:17:21.035Z,10.08
2023-05-10T02:18:21.042Z,10.08
2023-05-10T02:19:21.009Z,10.08
2023-05-10T02:20:21.003Z,10.06
2023-05-10T02:21:20.992Z,10.05
2023-05-10T02:22:20.987Z,10.03
2023-05-10T02:23:20.970Z,10.02
2023-05-10T02:24:20.990Z,10.01
2023-05-10T02:25:20.921Z,10.00
2023-05-10T02:26:20.927Z,9.99
2023-05-10T02:27:20.980Z,9.98
2023-05-10T02:28:20.892Z,9.98
2023-05-10T02:29:20.879Z,9.99
2023-05-10T02:30:20.867Z,9.99
2023-05-10T02:31:20.917Z,9.99
2023-05-10T02:32:20.867Z,9.98
2023-05-10T02:33:20.837Z,9.98
2023-05-10T02:34:20.805Z,9.97
2023-05-10T02:35:20.794Z,9.97
2023-05-10T02:36:20.790Z,9.97
2023-05-10T02:37:20.771Z,9.96
2023-05-10T02:38:20.821Z,9.96
2023-05-10T02:39:20.738Z,9.95
2023-05-10T02:40:20.762Z,9.94
2023-05-10T02:41:20.769Z,9.93
2023-05-10T02:42:20.777Z,9.93
2023-05-10T02:43:20.752Z,9.94
2023-05-10T02:44:20.720Z,9.94
2023-05-10T02:45:20.660Z,9.93
2023-05-10T02:46:20.717Z,9.92
2023-05-10T02:47:20.644Z,9.90
2023-05-10T02:48:20.622Z,9.90
2023-05-10T02:49:20.649Z,9.90
2023-05-10T02:50:20.605Z,9.90
2023-05-10T02:51:20.587Z,9.91
2023-05-10T02:52:20.573Z,9.91
2023-05-10T02:53:20.568Z,9.90
2023-05-10T02:54:20.585Z,9.90
2023-05-10T02:55:20.552Z,9.90
2023-05-10T02:56:20.536Z,9.90
2023-05-10T02:57:20.524Z,9.89
2023-05-10T02:58:20.509Z,9.88
2023-05-10T02:59:20.480Z,9.89
2023-05-10T03:00:20.468Z,9.90
2023-05-10T03:01:20.524Z,9.90
2023-05-10T03:02:20.452Z,9.90
2023-05-10T03:03:20.448Z,9.89
2023-05-10T03:04:20.434Z,9.88
2023-05-10T03:05:20.410Z,9.87
2023-05-10T03:06:20.402Z,9.86
2023-05-10T03:07:20.391Z,9.85
2023-05-10T03:08:20.368Z,9.83
2023-05-10T03:09:20.363Z,9.82
2023-05-10T03:10:20.341Z,9.81
2023-05-10T03:11:20.328Z,9.80
2023-05-10T03:12:20.311Z,9.80
2023-05-10T03:13:20.360Z,9.80
2023-05-10T03:14:20.287Z,9.79
2023-05-10T03:15:20.274Z,9.79
2023-05-10T03:16:20.327Z,9.79
2023-05-10T03:17:20.272Z,9.79
2023-05-10T03:18:20.260Z,9.79
2023-05-10T03:19:20.216Z,9.78
2023-05-10T03:20:20.218Z,9.78
2023-05-10T03:21:20.195Z,9.77
2023-05-10T03:22:20.183Z,9.76
2023-05-10T03:23:20.173Z,9.76
2023-05-10T03:24:20.183Z,9.75
2023-05-10T03:25:20.138Z,9.75
2023-05-10T03:26:20.125Z,9.75
2023-05-10T03:27:20.123Z,9.75
2023-05-10T03:28:20.098Z,9.75
2023-05-10T03:29:20.110Z,9.75
2023-05-10T03:30:20.114Z,9.75
2023-05-10T03:31:20.130Z,9.75
2023-05-10T03:32:20.061Z,9.75
2023-05-10T03:33:20.053Z,9.74
2023-05-10T03:34:20.018Z,9.74
2023-05-10T03:35:20.033Z,9.73
2023-05-10T03:36:19.991Z,9.72
2023-05-10T03:37:19.992Z,9.72
2023-05-10T03:38:19.979Z,9.72
2023-05-10T03:39:19.963Z,9.72
2023-05-10T03:40:20.110Z,9.73
2023-05-10T03:41:19.969Z,9.73
2023-05-10T03:42:19.918Z,9.73
2023-05-10T03:43:19.920Z,9.73
2023-05-10T03:44:19.910Z,9.73
2023-05-10T03:45:19.896Z,9.73
2023-05-10T03:46:19.947Z,9.72
2023-05-10T03:47:19.870Z,9.72
2023-05-10T03:48:19.856Z,9.72
2023-05-10T03:49:19.829Z,9.71
2023-05-10T03:50:20.060Z,9.71
2023-05-10T03:51:19.815Z,9.70
2023-05-10T03:52:19.822Z,9.70
2023-05-10T03:53:19.806Z,9.70
2023-05-10T03:54:19.764Z,9.70
2023-05-10T03:55:19.744Z,9.69
2023-05-10T03:56:19.747Z,9.69
2023-05-10T03:57:19.741Z,9.70
2023-05-10T03:58:19.737Z,9.70
2023-05-10T03:59:19.699Z,9.69
2023-05-10T04:00:19.799Z,9.68
2023-05-10T04:01:19.686Z,9.68
2023-05-10T04:02:19.729Z,9.68
2023-05-10T04:03:19.760Z,9.68
2023-05-10T04:04:20.051Z,9.69
2023-05-10T04:05:19.664Z,9.70
2023-05-10T04:06:19.643Z,9.72
2023-05-10T04:07:19.609Z,9.72
2023-05-10T04:08:19.607Z,9.72
2023-05-10T04:09:19.606Z,9.72
2023-05-10T04:10:19.688Z,9.73
2023-05-10T04:11:19.556Z,9.73
2023-05-10T04:12:19.534Z,9.73
2023-05-10T04:13:19.569Z,9.73
2023-05-10T04:14:19.535Z,9.73
2023-05-10T04:15:19.489Z,9.73
2023-05-10T04:16:19.545Z,9.74
2023-05-10T04:17:19.531Z,9.75
2023-05-10T04:18:19.464Z,9.76
2023-05-10T04:19:19.492Z,9.77
2023-05-10T04:20:19.552Z,9.79
2023-05-10T04:21:19.436Z,9.81
2023-05-10T04:22:19.399Z,9.83
2023-05-10T04:23:19.399Z,9.85
2023-05-10T04:24:19.400Z,9.87
2023-05-10T04:25:19.392Z,9.87
2023-05-10T04:26:19.346Z,9.88
2023-05-10T04:27:19.338Z,9.89
2023-05-10T04:28:19.311Z,9.89
2023-05-10T04:29:19.327Z,9.90
2023-05-10T04:30:19.313Z,9.90
2023-05-10T04:31:19.372Z,9.90
2023-05-10T04:32:19.301Z,9.90
2023-05-10T04:33:19.264Z,9.90
2023-05-10T04:34:19.244Z,9.91
2023-05-10T04:35:19.280Z,9.92
2023-05-10T04:36:19.234Z,9.94
2023-05-10T04:37:19.219Z,9.95
2023-05-10T04:38:19.198Z,9.95
2023-05-10T04:39:19.178Z,9.96
2023-05-10T04:40:19.353Z,9.97
2023-05-10T04:41:19.147Z,9.98
2023-05-10T04:42:19.170Z,9.99
2023-05-10T04:43:19.119Z,10.00
2023-05-10T04:44:19.122Z,10.01
2023-05-10T04:45:19.104Z,10.02
2023-05-10T04:46:19.118Z,10.03
2023-05-10T04:47:19.079Z,10.05
2023-05-10T04:48:19.088Z,10.07
2023-05-10T04:49:19.056Z,10.08
2023-05-10T04:50:19.134Z,10.09
2023-05-10T04:51:19.024Z,10.09
2023-05-10T04:52:19.028Z,10.10
2023-05-10T04:53:19.018Z,10.11
2023-05-10T04:54:18.998Z,10.12
2023-05-10T04:55:18.983Z,10.12
2023-05-10T04:56:18.955Z,10.12
2023-05-10T04:57:18.962Z,10.14
2023-05-10T04:58:18.959Z,10.16
2023-05-10T04:59:18.935Z,10.18
2023-05-10T05:00:19.020Z,10.21
2023-05-10T05:01:18.935Z,10.24
2023-05-10T05:02:18.892Z,10.25
2023-05-10T05:03:18.968Z,10.26
2023-05-10T05:04:18.851Z,10.27
2023-05-10T05:05:18.834Z,10.28
2023-05-10T05:06:18.853Z,10.30
2023-05-10T05:07:18.814Z,10.34
2023-05-10T05:08:18.826Z,10.37
2023-05-10T05:09:18.805Z,10.40
2023-05-10T05:10:19.041Z,10.42
2023-05-10T05:11:18.796Z,10.44
2023-05-10T05:12:18.755Z,10.45
2023-05-10T05:13:18.795Z,10.46
2023-05-10T05:14:18.732Z,10.48
2023-05-10T05:15:18.771Z,10.51
2023-05-10T05:16:18.728Z,10.53
2023-05-10T05:17:18.713Z,10.54
2023-05-10T05:18:18.694Z,10.53
2023-05-10T05:19:18.700Z,10.52
2023-05-10T05:20:18.827Z,10.51
2023-05-10T05:21:18.639Z,10.50
2023-05-10T05:22:19.708Z,10.49
2023-05-10T05:23:18.619Z,10.50
2023-05-10T05:24:18.600Z,10.50
2023-05-10T05:25:18.584Z,10.51
2023-05-10T05:26:18.599Z,10.52
2023-05-10T05:27:18.576Z,10.53
2023-05-10T05:28:18.612Z,10.54
2023-05-10T05:29:18.524Z,10.54
2023-05-10T05:30:18.811Z,10.54
2023-05-10T05:31:18.521Z,10.53
2023-05-10T05:32:18.519Z,10.53
2023-05-10T05:33:18.484Z,10.53
2023-05-10T05:34:18.475Z,10.53
2023-05-10T05:35:18.652Z,10.52
2023-05-10T05:36:18.470Z,10.52
2023-05-10T05:37:18.457Z,10.52
2023-05-10T05:38:18.426Z,10.51
2023-05-10T05:39:18.412Z,10.51
2023-05-10T05:40:18.387Z,10.51
2023-05-10T05:41:18.377Z,10.52
2023-05-10T05:42:18.374Z,10.52
2023-05-10T05:43:18.370Z,10.52
2023-05-10T05:44:18.333Z,10.52
2023-05-10T05:45:18.595Z,10.52
2023-05-10T05:46:18.433Z,10.52
2023-05-10T05:47:18.298Z,10.52
2023-05-10T05:48:18.327Z,10.51
2023-05-10T05:49:18.289Z,10.51
2023-05-10T05:50:18.355Z,10.50
2023-05-10T05:51:18.242Z,10.48
2023-05-10T05:52:18.228Z,10.48
2023-05-10T05:53:18.221Z,10.48
2023-05-10T05:54:18.234Z,10.48
2023-05-10T05:55:18.456Z,10.49
2023-05-10T05:56:18.206Z,10.50
2023-05-10T05:57:18.167Z,10.51
2023-05-10T05:58:18.183Z,10.51
2023-05-10T05:59:18.190Z,10.50
2023-05-10T06:00:18.184Z,10.48
2023-05-10T06:01:18.117Z,10.47
2023-05-10T06:02:18.110Z,10.45
2023-05-10T06:03:18.172Z,10.45
2023-05-10T06:04:18.388Z,10.46
2023-05-10T06:05:18.234Z,10.49
2023-05-10T06:06:18.060Z,10.50
2023-05-10T06:07:18.040Z,10.50
2023-05-10T06:08:18.051Z,10.52
2023-05-10T06:09:18.079Z,10.53
2023-05-10T06:10:18.016Z,10.55
2023-05-10T06:11:18.005Z,10.57
2023-05-10T06:12:17.986Z,10.58
2023-05-10T06:13:17.996Z,10.59
2023-05-10T06:14:17.969Z,10.59
2023-05-10T06:15:18.130Z,10.61
2023-05-10T06:16:17.974Z,10.62
2023-05-10T06:17:17.906Z,10.65
2023-05-10T06:18:17.908Z,10.68
2023-05-10T06:19:17.918Z,10.70
2023-05-10T06:20:17.873Z,10.73
2023-05-10T06:21:17.881Z,10.75
2023-05-10T06:22:17.860Z,10.78
2023-05-10T06:23:17.834Z,10.80
2023-05-10T06:24:17.842Z,10.84
2023-05-10T06:25:18.058Z,10.87
2023-05-10T06:26:17.804Z,10.89
2023-05-10T06:27:17.776Z,10.91
2023-05-10T06:28:17.770Z,10.91
2023-05-10T06:29:17.770Z,10.92
2023-05-10T06:30:17.751Z,10.93
2023-05-10T06:31:17.769Z,10.93
2023-05-10T06:32:17.709Z,10.94
2023-05-10T06:33:17.710Z,10.95
2023-05-10T06:34:17.709Z,10.97
2023-05-10T06:35:18.045Z,10.98
2023-05-10T06:36:17.662Z,11.00
2023-05-10T06:37:17.645Z,11.02
2023-05-10T06:38:17.635Z,11.04
2023-05-10T06:39:17.658Z,11.04
2023-05-10T06:40:17.606Z,11.03
2023-05-10T06:41:17.606Z,11.02
2023-05-10T06:42:17.584Z,11.00
2023-05-10T06:43:17.610Z,10.98
2023-05-10T06:44:17.563Z,10.97
2023-05-10T06:45:17.813Z,10.98
2023-05-10T06:46:17.608Z,10.98
2023-05-10T06:47:17.517Z,10.98
2023-05-10T06:48:17.557Z,10.97
2023-05-10T06:49:17.499Z,10.95
2023-05-10T06:50:17.523Z,10.93
2023-05-10T06:51:17.475Z,10.87
2023-05-10T06:52:17.471Z,10.82
2023-05-10T06:53:17.463Z,10.79
2023-05-10T06:54:17.486Z,10.75
2023-05-10T06:55:17.585Z,10.72
2023-05-10T06:56:17.459Z,10.70
2023-05-10T06:57:30.643Z,10.70
2023-05-10T06:58:17.400Z,10.71
2023-05-10T06:59:17.457Z,10.71
2023-05-10T07:00:17.659Z,10.71
2023-05-10T07:01:17.565Z,10.70
2023-05-10T07:02:17.464Z,10.70
2023-05-10T07:03:17.373Z,10.68
2023-05-10T07:04:17.378Z,10.65
2023-05-10T07:05:17.608Z,10.65
2023-05-10T07:06:29.532Z,10.66
2023-05-10T07:07:17.268Z,10.66
2023-05-10T07:08:17.302Z,10.67
2023-05-10T07:09:17.254Z,10.69
2023-05-10T07:10:17.254Z,10.72
2023-05-10T07:11:17.205Z,10.75
2023-05-10T07:12:17.246Z,10.76
2023-05-10T07:13:17.265Z,10.77
2023-05-10T07:14:17.183Z,10.79
2023-05-10T07:15:17.743Z,10.83
2023-05-10T07:16:17.239Z,10.86
2023-05-10T07:17:17.194Z,10.88
2023-05-10T07:18:17.143Z,10.90
2023-05-10T07:19:17.136Z,10.92
2023-05-10T07:20:17.098Z,10.94
2023-05-10T07:21:17.111Z,10.98
2023-05-10T07:22:17.071Z,11.01
2023-05-10T07:23:17.046Z,11.03
2023-05-10T07:24:17.054Z,11.05
2023-05-10T07:25:17.192Z,11.08
2023-05-10T07:26:17.054Z,11.12
2023-05-10T07:27:17.007Z,11.14
2023-05-10T07:28:16.990Z,11.16
2023-05-10T07:29:16.986Z,11.18
2023-05-10T07:30:17.005Z,11.21
2023-05-10T07:31:16.982Z,11.24
2023-05-10T07:32:16.994Z,11.26
2023-05-10T07:33:16.977Z,11.26
2023-05-10T07:34:16.931Z,11.27
2023-05-10T07:35:17.132Z,11.28
2023-05-10T07:36:16.878Z,11.28
2023-05-10T07:37:16.894Z,11.29
2023-05-10T07:38:16.875Z,11.31
2023-05-10T07:39:26.255Z,11.32
2023-05-10T07:40:16.873Z,11.33
2023-05-10T07:41:16.825Z,11.34
2023-05-10T07:42:16.832Z,11.33
2023-05-10T07:43:16.838Z,11.33
2023-05-10T07:44:16.775Z,11.33
2023-05-10T07:45:16.996Z,11.35
2023-05-10T07:46:16.821Z,11.37
2023-05-10T07:47:16.735Z,11.41
2023-05-10T07:48:16.770Z,11.45
2023-05-10T07:49:16.729Z,11.50
2023-05-10T07:50:16.710Z,11.54
2023-05-10T07:51:16.684Z,11.58
2023-05-10T07:52:16.706Z,11.61
2023-05-10T07:53:16.683Z,11.65
2023-05-10T07:54:16.662Z,11.68
2023-05-10T07:55:16.906Z,11.71
2023-05-10T07:56:16.625Z,11.71
2023-05-10T07:57:16.606Z,11.70
2023-05-10T07:58:16.613Z,11.72
2023-05-10T07:59:16.617Z,11.75
2023-05-10T08:00:16.569Z,11.79
2023-05-10T08:01:16.574Z,11.87
2023-05-10T08:02:16.572Z,11.97
2023-05-10T08:03:16.736Z,12.06
2023-05-10T08:04:16.633Z,12.14
2023-05-10T08:05:16.753Z,12.20
2023-05-10T08:06:16.566Z,12.23
2023-05-10T08:07:16.494Z,12.29
2023-05-10T08:08:16.476Z,12.36
2023-05-10T08:09:16.486Z,12.45
2023-05-10T08:10:16.488Z,12.51
2023-05-10T08:11:16.432Z,12.55
2023-05-10T08:12:16.410Z,12.60
2023-05-10T08:13:16.433Z,12.65
2023-05-10T08:14:16.387Z,12.70
2023-05-10T08:15:16.646Z,12.72
2023-05-10T08:16:16.446Z,12.72
2023-05-10T08:17:17.679Z,12.75
2023-05-10T08:18:16.365Z,12.76
2023-05-10T08:19:16.323Z,12.76
2023-05-10T08:20:16.320Z,12.78
2023-05-10T08:21:16.300Z,12.82
2023-05-10T08:22:16.312Z,12.89
2023-05-10T08:23:16.280Z,12.96
2023-05-10T08:24:16.262Z,13.00
2023-05-10T08:25:16.492Z,13.04
2023-05-10T08:26:16.249Z,13.05
2023-05-10T08:27:16.231Z,13.03
2023-05-10T08:28:16.221Z,12.99
2023-05-10T08:29:16.206Z,12.97
2023-05-10T08:30:16.206Z,12.99
2023-05-10T08:31:16.190Z,13.04
2023-05-10T08:32:16.162Z,13.07
2023-05-10T08:33:16.200Z,13.06
2023-05-10T08:34:16.152Z,13.03
2023-05-10T08:35:16.294Z,12.99
2023-05-10T08:36:16.104Z,12.95
2023-05-10T08:37:16.140Z,12.93
2023-05-10T08:38:16.148Z,12.92
2023-05-10T08:39:26.629Z,12.93
2023-05-10T08:40:16.093Z,12.94
2023-05-10T08:41:16.049Z,12.92
2023-05-10T08:42:16.029Z,12.88
2023-05-10T08:43:16.045Z,12.83
2023-05-10T08:44:16.000Z,12.75
2023-05-10T08:45:16.202Z,12.68
2023-05-10T08:46:16.005Z,12.60
2023-05-10T08:47:16.003Z,12.52
2023-05-10T08:48:15.975Z,12.43
2023-05-10T08:49:15.949Z,12.38
2023-05-10T08:50:15.918Z,12.38
2023-05-10T08:51:15.936Z,12.39
2023-05-10T08:52:15.902Z,12.41
2023-05-10T08:53:15.886Z,12.45
2023-05-10T08:54:15.880Z,12.50
2023-05-10T08:55:16.163Z,12.57
2023-05-10T08:56:15.863Z,12.64
2023-05-10T08:57:15.846Z,12.72
2023-05-10T08:58:15.824Z,12.80
2023-05-10T08:59:15.851Z,12.89
2023-05-10T09:00:15.835Z,12.98
2023-05-10T09:01:15.888Z,13.07
2023-05-10T09:02:18.619Z,13.14
2023-05-10T09:03:15.755Z,13.20
2023-05-10T09:04:15.810Z,13.25
2023-05-10T09:05:15.977Z,13.30
2023-05-10T09:06:15.725Z,13.37
2023-05-10T09:07:15.717Z,13.43
2023-05-10T09:08:15.731Z,13.47
2023-05-10T09:09:15.685Z,13.47
2023-05-10T09:10:15.687Z,13.43
2023-05-10T09:11:15.651Z,13.38
2023-05-10T09:12:15.640Z,13.33
2023-05-10T09:13:15.664Z,13.31
2023-05-10T09:14:15.612Z,13.30
2023-05-10T09:15:15.870Z,13.29
2023-05-10T09:16:21.985Z,13.27
2023-05-10T09:17:15.635Z,13.19
2023-05-10T09:18:15.657Z,13.07
2023-05-10T09:19:15.612Z,12.96
2023-05-10T09:20:15.549Z,12.90
2023-05-10T09:21:15.537Z,12.92
2023-05-10T09:22:15.515Z,12.98
2023-05-10T09:23:15.506Z,13.08
2023-05-10T09:24:15.507Z,13.20
2023-05-10T09:25:15.660Z,13.35
2023-05-10T09:26:15.457Z,13.47
2023-05-10T09:27:15.478Z,13.56
2023-05-10T09:28:15.446Z,13.60
2023-05-10T09:29:17.346Z,13.58
2023-05-10T09:30:15.431Z,13.54
2023-05-10T09:31:15.463Z,13.50
2023-05-10T09:32:15.385Z,13.46
2023-05-10T09:33:15.361Z,13.45
2023-05-10T09:34:15.380Z,13.47
2023-05-10T09:35:15.517Z,13.50
2023-05-10T09:36:15.360Z,13.54
2023-05-10T09:37:15.317Z,13.60
2023-05-10T09:38:15.344Z,13.73
2023-05-10T09:39:15.312Z,13.86
2023-05-10T09:40:15.282Z,13.98
2023-05-10T09:41:15.274Z,14.07
2023-05-10T09:42:15.316Z,14.14
2023-05-10T09:43:15.264Z,14.19
2023-05-10T09:44:15.240Z,14.26
2023-05-10T09:45:15.505Z,14.37
2023-05-10T09:46:15.242Z,14.52
2023-05-10T09:47:15.210Z,14.67
2023-05-10T09:48:15.205Z,14.74
2023-05-10T09:49:15.190Z,14.79
2023-05-10T09:50:15.149Z,14.84
2023-05-10T09:51:15.140Z,14.93
2023-05-10T09:52:15.157Z,15.05
2023-05-10T09:53:15.163Z,15.19
2023-05-10T09:54:15.127Z,15.31
2023-05-10T09:55:15.250Z,15.43
2023-05-10T09:56:15.126Z,15.55
2023-05-10T09:57:15.112Z,15.64
2023-05-10T09:58:15.519Z,15.74
2023-05-10T09:59:15.035Z,15.83
2023-05-10T10:00:15.037Z,15.96
2023-05-10T10:01:15.053Z,16.11
2023-05-10T10:02:15.009Z,16.24
2023-05-10T10:03:15.028Z,16.34
2023-05-10T10:04:16.002Z,16.39
2023-05-10T10:05:15.203Z,16.40
2023-05-10T10:06:26.502Z,16.33
2023-05-10T10:07:14.960Z,16.21
2023-05-10T10:08:14.949Z,16.13
2023-05-10T10:09:14.920Z,16.10
2023-05-10T10:10:14.901Z,16.11
2023-05-10T10:11:14.922Z,16.08
2023-05-10T10:12:14.880Z,16.05
2023-05-10T10:13:14.882Z,16.08
2023-05-10T10:14:14.859Z,16.07
2023-05-10T10:15:16.713Z,16.01
2023-05-10T10:16:14.875Z,15.88
2023-05-10T10:17:14.814Z,15.76
2023-05-10T10:18:14.818Z,15.72
2023-05-10T10:19:14.817Z,15.72
2023-05-10T10:20:14.903Z,15.73
2023-05-10T10:21:14.809Z,15.75
2023-05-10T10:22:14.787Z,15.74
2023-05-10T10:23:17.318Z,15.67
2023-05-10T10:24:14.752Z,15.53
2023-05-10T10:25:15.057Z,15.37
2023-05-10T10:26:14.711Z,15.21
2023-05-10T10:27:14.703Z,15.06
2023-05-10T10:28:14.698Z,14.91
2023-05-10T10:29:14.671Z,14.74
2023-05-10T10:30:14.687Z,14.58
2023-05-10T10:31:14.718Z,14.45
2023-05-10T10:32:14.629Z,14.32
2023-05-10T10:33:27.352Z,14.20
2023-05-10T10:34:14.617Z,14.09
2023-05-10T10:35:14.932Z,14.00
2023-05-10T10:36:14.585Z,13.96
2023-05-10T10:37:14.607Z,13.96
2023-05-10T10:38:14.563Z,13.94
2023-05-10T10:39:14.559Z,13.92
2023-05-10T10:40:14.599Z,13.91
2023-05-10T10:41:14.540Z,13.92
2023-05-10T10:42:14.511Z,13.94
2023-05-10T10:43:14.505Z,13.93
2023-05-10T10:44:14.488Z,13.91
2023-05-10T10:45:14.758Z,13.92
2023-05-10T10:46:14.562Z,13.97
2023-05-10T10:47:14.436Z,14.04
2023-05-10T10:48:14.453Z,14.08
2023-05-10T10:49:14.471Z,14.14
2023-05-10T10:50:14.417Z,14.21
2023-05-10T10:51:14.397Z,14.25
2023-05-10T10:52:14.389Z,14.31
2023-05-10T10:53:14.403Z,14.37
2023-05-10T10:54:14.377Z,14.38
2023-05-10T10:55:14.533Z,14.34
2023-05-10T10:56:14.330Z,14.28
2023-05-10T10:57:14.318Z,14.22
2023-05-10T10:58:14.310Z,14.18
2023-05-10T10:59:14.291Z,14.19
2023-05-10T11:00:14.305Z,14.21
2023-05-10T11:01:14.269Z,14.22
2023-05-10T11:02:14.263Z,14.22
2023-05-10T11:03:14.310Z,14.23
2023-05-10T11:04:14.265Z,14.26
2023-05-10T11:05:14.410Z,14.25
2023-05-10T11:06:14.268Z,14.17
2023-05-10T11:07:14.185Z,14.08
2023-05-10T11:08:14.170Z,13.97
2023-05-10T11:09:14.162Z,13.81
2023-05-10T11:10:14.245Z,13.55
2023-05-10T11:11:14.157Z,13.23
2023-05-10T11:12:14.140Z,12.89
2023-05-10T11:13:14.100Z,12.58
2023-05-10T11:14:14.098Z,12.34
2023-05-10T11:15:14.211Z,12.16
2023-05-10T11:16:14.120Z,11.94
2023-05-10T11:17:14.098Z,11.65
2023-05-10T11:18:14.048Z,11.25
2023-05-10T11:19:14.192Z,10.72
2023-05-10T11:20:14.102Z,10.13
2023-05-10T11:21:14.007Z,9.62
2023-05-10T11:22:14.015Z,9.23
2023-05-10T11:23:13.969Z,8.96
2023-05-10T11:24:13.960Z,8.80
2023-05-10T11:25:13.948Z,8.70
2023-05-10T11:26:13.941Z,8.63
2023-05-10T11:27:13.944Z,8.59
2023-05-10T11:28:13.915Z,8.57
2023-05-10T11:29:13.907Z,8.54
2023-05-10T11:30:14.123Z,8.49
2023-05-10T11:31:13.932Z,8.44
2023-05-10T11:32:13.875Z,8.42
2023-05-10T11:33:13.844Z,8.41
2023-05-10T11:34:13.829Z,8.41
2023-05-10T11:35:13.812Z,8.41
2023-05-10T11:36:13.817Z,8.41
2023-05-10T11:37:13.844Z,8.44
2023-05-10T11:38:13.795Z,8.48
2023-05-10T11:39:13.775Z,8.53
2023-05-10T11:40:13.798Z,8.59
2023-05-10T11:41:13.757Z,8.65
2023-05-10T11:42:13.743Z,8.73
2023-05-10T11:43:13.748Z,8.83
2023-05-10T11:44:13.722Z,8.92
2023-05-10T11:45:13.697Z,9.01
2023-05-10T11:46:13.689Z,9.09
2023-05-10T11:47:13.680Z,9.17
2023-05-10T11:48:13.721Z,9.21
2023-05-10T11:49:13.664Z,9.22
2023-05-10T11:50:13.675Z,9.23
2023-05-10T11:51:13.618Z,9.26
2023-05-10T11:52:13.614Z,9.31
2023-05-10T11:53:13.589Z,9.36
2023-05-10T11:54:13.589Z,9.45
2023-05-10T11:55:13.599Z,9.61
2023-05-10T11:56:13.557Z,9.83
2023-05-10T11:57:13.553Z,10.06
2023-05-10T11:58:13.528Z,10.25
2023-05-10T11:59:13.515Z,10.40
2023-05-10T12:00:13.590Z,10.50
2023-05-10T12:01:13.505Z,10.62
2023-05-10T12:02:13.515Z,10.76
2023-05-10T12:03:13.544Z,10.96
2023-05-10T12:04:13.661Z,11.17
2023-05-10T12:05:13.435Z,11.36
2023-05-10T12:06:13.450Z,11.53
2023-05-10T12:07:13.463Z,11.73
2023-05-10T12:08:13.412Z,11.99
2023-05-10T12:09:13.376Z,12.23
2023-05-10T12:10:13.518Z,12.39
2023-05-10T12:11:13.349Z,12.47
2023-05-10T12:12:13.366Z,12.51
2023-05-10T12:13:13.335Z,12.55
2023-05-10T12:14:13.332Z,12.62
2023-05-10T12:15:13.319Z,12.73
2023-05-10T12:16:13.304Z,12.84
2023-05-10T12:17:13.313Z,12.88
2023-05-10T12:18:13.337Z,12.89
2023-05-10T12:19:13.287Z,12.84
2023-05-10T12:20:13.300Z,12.79
2023-05-10T12:21:13.227Z,12.79
2023-05-10T12:22:13.235Z,12.75
2023-05-10T12:23:13.214Z,12.73
2023-05-10T12:24:13.209Z,12.78
2023-05-10T12:25:13.176Z,12.88
2023-05-10T12:26:13.176Z,12.96
2023-05-10T12:27:13.162Z,13.01
2023-05-10T12:28:13.177Z,12.99
2023-05-10T12:29:13.147Z,12.99
2023-05-10T12:30:13.139Z,13.08
2023-05-10T12:31:13.110Z,13.22
2023-05-10T12:32:13.150Z,13.37
2023-05-10T12:33:13.214Z,13.51
2023-05-10T12:34:13.098Z,13.66
2023-05-10T12:35:13.065Z,13.78
2023-05-10T12:36:13.048Z,13.86
2023-05-10T12:37:13.056Z,13.86
2023-05-10T12:38:13.005Z,13.80
2023-05-10T12:39:13.030Z,13.69
2023-05-10T12:40:13.037Z,13.50
2023-05-10T12:41:12.980Z,13.33
2023-05-10T12:42:13.010Z,13.29
2023-05-10T12:43:12.972Z,13.39
2023-05-10T12:44:12.950Z,13.49
2023-05-10T12:45:12.937Z,13.53
2023-05-10T12:46:12.971Z,13.52
2023-05-10T12:47:12.904Z,13.46
2023-05-10T12:48:12.904Z,13.38
2023-05-10T12:49:12.903Z,13.33
2023-05-10T12:50:12.902Z,13.36
2023-05-10T12:51:12.852Z,13.46
2023-05-10T12:52:12.865Z,13.59
2023-05-10T12:53:12.821Z,13.63
2023-05-10T12:54:12.812Z,13.65
2023-05-10T12:55:12.815Z,13.69
2023-05-10T12:56:12.789Z,13.69
2023-05-10T12:57:12.774Z,13.67
2023-05-10T12:58:17.951Z,13.65